ASX360 EDDH-LSZH
Flight info
| Callsign | ASX360 |
|---|---|
| Flight time | 1h 3m |
| Altitude | 34000 |
| Route | IDEKO8C/05 IDEKO N850 ROBEG DCT SWALM DCT OMOGI T721 RILAX |
| Aircraft | A20N/M-SDE2E3FGHIJ1RWXY/LB1 |
Departure
| Time | 2026-05-07 11:26 |
|---|---|
| Airport | Hamburg Helmut Schmidt Airport (EDDH) |
Arrival
| Time | 2026-05-07 12:30 |
|---|---|
| Airport | Zürich Airport (LSZH) |
| Time | Latitude | Longitude | Altitude | Speed | Heading |
|---|---|---|---|---|---|
| 2026-05-07 11:04 | 53.63112 | 10.00379 | 51 ft | 0 kts | 88° |
| 2026-05-07 11:16 | 53.63111 | 10.00344 | 51 ft | 4 kts | 91° |
| 2026-05-07 11:16 | 53.63113 | 10.00299 | 41 ft | 4 kts | 103° |
| 2026-05-07 11:16 | 53.63123 | 10.00260 | 51 ft | 4 kts | 152° |
| 2026-05-07 11:16 | 53.63131 | 10.00254 | 49 ft | 0 kts | 176° |
| 2026-05-07 11:19 | 53.63123 | 10.00255 | 51 ft | 3 kts | 176° |
| 2026-05-07 11:19 | 53.63087 | 10.00260 | 34 ft | 7 kts | 175° |
| 2026-05-07 11:20 | 53.63033 | 10.00225 | 51 ft | 10 kts | 218° |
| 2026-05-07 11:20 | 53.63014 | 10.00204 | 50 ft | 2 kts | 212° |
| 2026-05-07 11:20 | 53.62990 | 10.00180 | 49 ft | 6 kts | 211° |
| 2026-05-07 11:20 | 53.62944 | 10.00133 | 51 ft | 10 kts | 213° |
| 2026-05-07 11:21 | 53.62878 | 10.00057 | 48 ft | 13 kts | 217° |
| 2026-05-07 11:21 | 53.62820 | 9.99982 | 52 ft | 0 kts | 212° |
| 2026-05-07 11:22 | 53.62805 | 9.99966 | 50 ft | 7 kts | 211° |
| 2026-05-07 11:22 | 53.62730 | 9.99890 | 52 ft | 17 kts | 210° |
| 2026-05-07 11:22 | 53.62634 | 9.99747 | 51 ft | 20 kts | 242° |
| 2026-05-07 11:22 | 53.62607 | 9.99505 | 48 ft | 22 kts | 259° |
| 2026-05-07 11:23 | 53.62577 | 9.99228 | 49 ft | 25 kts | 259° |
| 2026-05-07 11:23 | 53.62542 | 9.98923 | 51 ft | 28 kts | 259° |
| 2026-05-07 11:23 | 53.62505 | 9.98589 | 48 ft | 30 kts | 259° |
| 2026-05-07 11:23 | 53.62478 | 9.98354 | 49 ft | 18 kts | 259° |
| 2026-05-07 11:24 | 53.62437 | 9.98133 | 49 ft | 21 kts | 240° |
| 2026-05-07 11:24 | 53.62341 | 9.97918 | 51 ft | 24 kts | 227° |
| 2026-05-07 11:24 | 53.62233 | 9.97694 | 51 ft | 20 kts | 229° |
| 2026-05-07 11:24 | 53.62179 | 9.97483 | 51 ft | 21 kts | 289° |
| 2026-05-07 11:25 | 53.62278 | 9.97342 | 50 ft | 16 kts | 346° |
| 2026-05-07 11:25 | 53.62338 | 9.97414 | 52 ft | 0 kts | 51° |
| 2026-05-07 11:25 | 53.62357 | 9.97453 | 50 ft | 25 kts | 51° |
| 2026-05-07 11:25 | 53.62627 | 9.97997 | 51 ft | 93 kts | 49° |
| 2026-05-07 11:26 | 53.63201 | 9.99163 | 52 ft | 145 kts | 50° |
| 2026-05-07 11:26 | 53.63841 | 10.00470 | 537 ft | 149 kts | 51° |
| 2026-05-07 11:26 | 53.64524 | 10.01875 | 1126 ft | 159 kts | 52° |
| 2026-05-07 11:26 | 53.65217 | 10.03290 | 1914 ft | 155 kts | 51° |
| 2026-05-07 11:27 | 53.65922 | 10.04716 | 2391 ft | 171 kts | 52° |
| 2026-05-07 11:27 | 53.66721 | 10.06335 | 2812 ft | 192 kts | 52° |
| 2026-05-07 11:27 | 53.67619 | 10.08165 | 3388 ft | 208 kts | 51° |
| 2026-05-07 11:27 | 53.68649 | 10.09862 | 4307 ft | 210 kts | 33° |
| 2026-05-07 11:28 | 53.70078 | 10.10535 | 4787 ft | 221 kts | 1° |
| 2026-05-07 11:28 | 53.71604 | 10.09730 | 4965 ft | 230 kts | 327° |
| 2026-05-07 11:28 | 53.72623 | 10.07696 | 4997 ft | 237 kts | 299° |
| 2026-05-07 11:28 | 53.73379 | 10.05048 | 5009 ft | 273 kts | 296° |
| 2026-05-07 11:29 | 53.74185 | 10.02087 | 5011 ft | 279 kts | 296° |
| 2026-05-07 11:29 | 53.74909 | 9.99024 | 5192 ft | 285 kts | 282° |
| 2026-05-07 11:29 | 53.74816 | 9.95652 | 6022 ft | 285 kts | 251° |
| 2026-05-07 11:29 | 53.74069 | 9.92575 | 7235 ft | 284 kts | 246° |
| 2026-05-07 11:30 | 53.73287 | 9.89510 | 8267 ft | 288 kts | 246° |
| 2026-05-07 11:30 | 53.72487 | 9.86379 | 9258 ft | 291 kts | 246° |
| 2026-05-07 11:30 | 53.71682 | 9.83217 | 9762 ft | 293 kts | 246° |
| 2026-05-07 11:30 | 53.70881 | 9.80068 | 10011 ft | 291 kts | 246° |
| 2026-05-07 11:31 | 53.70072 | 9.76882 | 10247 ft | 305 kts | 246° |
| 2026-05-07 11:31 | 53.69204 | 9.73463 | 10585 ft | 329 kts | 247° |
| 2026-05-07 11:31 | 53.68284 | 9.69843 | 11229 ft | 339 kts | 247° |
| 2026-05-07 11:31 | 53.67359 | 9.66214 | 12150 ft | 341 kts | 247° |
| 2026-05-07 11:32 | 53.64915 | 9.59615 | 13860 ft | 349 kts | 220° |
| 2026-05-07 11:32 | 53.62793 | 9.57602 | 14645 ft | 354 kts | 199° |
| 2026-05-07 11:32 | 53.60352 | 9.56837 | 15419 ft | 358 kts | 187° |
| 2026-05-07 11:33 | 53.57849 | 9.56384 | 16172 ft | 363 kts | 187° |
| 2026-05-07 11:33 | 53.55326 | 9.55944 | 16925 ft | 366 kts | 187° |
| 2026-05-07 11:33 | 53.52797 | 9.55484 | 17674 ft | 370 kts | 187° |
| 2026-05-07 11:33 | 53.50213 | 9.54995 | 18417 ft | 373 kts | 188° |
| 2026-05-07 11:34 | 53.47611 | 9.54488 | 19086 ft | 376 kts | 188° |
| 2026-05-07 11:34 | 53.45039 | 9.53980 | 19751 ft | 379 kts | 188° |
| 2026-05-07 11:34 | 53.42381 | 9.53454 | 20418 ft | 382 kts | 188° |
| 2026-05-07 11:34 | 53.39762 | 9.52935 | 21065 ft | 384 kts | 188° |
| 2026-05-07 11:35 | 53.37101 | 9.52410 | 21700 ft | 388 kts | 188° |
| 2026-05-07 11:35 | 53.34402 | 9.51878 | 22336 ft | 391 kts | 188° |
| 2026-05-07 11:35 | 53.31681 | 9.51344 | 22954 ft | 394 kts | 188° |
| 2026-05-07 11:35 | 53.28947 | 9.50807 | 23556 ft | 398 kts | 188° |
| 2026-05-07 11:36 | 53.26187 | 9.50265 | 24081 ft | 401 kts | 188° |
| 2026-05-07 11:36 | 53.23509 | 9.49740 | 24573 ft | 404 kts | 188° |
| 2026-05-07 11:36 | 53.20659 | 9.49183 | 25076 ft | 407 kts | 188° |
| 2026-05-07 11:36 | 53.17849 | 9.48635 | 25557 ft | 410 kts | 188° |
| 2026-05-07 11:37 | 53.14995 | 9.48080 | 26031 ft | 413 kts | 187° |
| 2026-05-07 11:37 | 53.12119 | 9.47521 | 26496 ft | 416 kts | 188° |
| 2026-05-07 11:37 | 53.09222 | 9.46958 | 26954 ft | 419 kts | 187° |
| 2026-05-07 11:37 | 53.06314 | 9.46395 | 27396 ft | 422 kts | 187° |
| 2026-05-07 11:38 | 53.03411 | 9.45832 | 27812 ft | 425 kts | 187° |
| 2026-05-07 11:38 | 53.00425 | 9.45254 | 28229 ft | 428 kts | 187° |
| 2026-05-07 11:38 | 52.97490 | 9.44677 | 28618 ft | 431 kts | 188° |
| 2026-05-07 11:38 | 52.94501 | 9.44041 | 28998 ft | 434 kts | 188° |
| 2026-05-07 11:39 | 52.91488 | 9.43382 | 29365 ft | 437 kts | 188° |
| 2026-05-07 11:39 | 52.88453 | 9.42720 | 29723 ft | 440 kts | 188° |
| 2026-05-07 11:39 | 52.85413 | 9.42063 | 30098 ft | 443 kts | 188° |
| 2026-05-07 11:39 | 52.82338 | 9.41404 | 30428 ft | 446 kts | 188° |
| 2026-05-07 11:40 | 52.79211 | 9.40736 | 30750 ft | 449 kts | 188° |
| 2026-05-07 11:40 | 52.76092 | 9.40072 | 31053 ft | 452 kts | 188° |
| 2026-05-07 11:40 | 52.72969 | 9.39410 | 31411 ft | 453 kts | 188° |
| 2026-05-07 11:40 | 52.69847 | 9.38748 | 31828 ft | 453 kts | 188° |
| 2026-05-07 11:41 | 52.66710 | 9.38085 | 32248 ft | 453 kts | 188° |
| 2026-05-07 11:41 | 52.63591 | 9.37427 | 32663 ft | 453 kts | 188° |
| 2026-05-07 11:41 | 52.60466 | 9.36742 | 33083 ft | 453 kts | 189° |
| 2026-05-07 11:41 | 52.57353 | 9.35936 | 33450 ft | 453 kts | 190° |
| 2026-05-07 11:42 | 52.54234 | 9.35084 | 33824 ft | 453 kts | 190° |
| 2026-05-07 11:42 | 52.51131 | 9.34239 | 34020 ft | 452 kts | 190° |
| 2026-05-07 11:42 | 52.48027 | 9.33407 | 34046 ft | 450 kts | 189° |
| 2026-05-07 11:43 | 52.41799 | 9.31769 | 34045 ft | 451 kts | 189° |
| 2026-05-07 11:43 | 52.35634 | 9.30164 | 34051 ft | 451 kts | 189° |
| 2026-05-07 11:44 | 52.29444 | 9.28551 | 34045 ft | 451 kts | 189° |
| 2026-05-07 11:44 | 52.24252 | 9.27215 | 34052 ft | 451 kts | 188° |
| 2026-05-07 11:45 | 52.17981 | 9.26693 | 34044 ft | 451 kts | 182° |
| 2026-05-07 11:45 | 52.11712 | 9.26447 | 34036 ft | 450 kts | 182° |
| 2026-05-07 11:46 | 52.05400 | 9.26179 | 34033 ft | 449 kts | 182° |
| 2026-05-07 11:46 | 51.99156 | 9.25908 | 34029 ft | 449 kts | 182° |
| 2026-05-07 11:47 | 51.92906 | 9.25639 | 34038 ft | 450 kts | 182° |
| 2026-05-07 11:47 | 51.86594 | 9.25367 | 34038 ft | 450 kts | 182° |
| 2026-05-07 11:48 | 51.80322 | 9.25099 | 34036 ft | 450 kts | 182° |
| 2026-05-07 11:48 | 51.74045 | 9.24831 | 34035 ft | 450 kts | 182° |
| 2026-05-07 11:49 | 51.67774 | 9.24563 | 34031 ft | 450 kts | 182° |
| 2026-05-07 11:49 | 51.61499 | 9.24296 | 34026 ft | 450 kts | 182° |
| 2026-05-07 11:50 | 51.55235 | 9.24030 | 34025 ft | 450 kts | 182° |
| 2026-05-07 11:50 | 51.48968 | 9.23766 | 34021 ft | 450 kts | 182° |
| 2026-05-07 11:51 | 51.42696 | 9.23501 | 34018 ft | 450 kts | 182° |
| 2026-05-07 11:51 | 51.36392 | 9.23236 | 34021 ft | 450 kts | 182° |
| 2026-05-07 11:52 | 51.30148 | 9.22974 | 34021 ft | 449 kts | 182° |
| 2026-05-07 11:52 | 51.23879 | 9.22711 | 34019 ft | 449 kts | 182° |
| 2026-05-07 11:53 | 51.17624 | 9.22451 | 34021 ft | 450 kts | 182° |
| 2026-05-07 11:53 | 51.11357 | 9.22191 | 34022 ft | 450 kts | 182° |
| 2026-05-07 11:54 | 51.05062 | 9.21929 | 34021 ft | 450 kts | 182° |
| 2026-05-07 11:54 | 50.98765 | 9.21669 | 34022 ft | 450 kts | 182° |
| 2026-05-07 11:55 | 50.92502 | 9.21412 | 34024 ft | 450 kts | 182° |
| 2026-05-07 11:55 | 50.86127 | 9.21149 | 34019 ft | 450 kts | 182° |
| 2026-05-07 11:56 | 50.79895 | 9.20892 | 34023 ft | 450 kts | 182° |
| 2026-05-07 11:56 | 50.73590 | 9.20632 | 34018 ft | 450 kts | 182° |
| 2026-05-07 11:57 | 50.67366 | 9.19675 | 34016 ft | 449 kts | 188° |
| 2026-05-07 11:57 | 50.61155 | 9.18364 | 34022 ft | 450 kts | 188° |
| 2026-05-07 11:58 | 50.54956 | 9.17077 | 34018 ft | 450 kts | 188° |
| 2026-05-07 11:58 | 50.48697 | 9.15782 | 34020 ft | 450 kts | 188° |
| 2026-05-07 11:59 | 50.42468 | 9.14498 | 34020 ft | 450 kts | 188° |
| 2026-05-07 11:59 | 50.36241 | 9.13217 | 34018 ft | 451 kts | 188° |
| 2026-05-07 12:00 | 50.29990 | 9.11935 | 34020 ft | 451 kts | 188° |
| 2026-05-07 12:00 | 50.24820 | 9.10877 | 34013 ft | 450 kts | 188° |
| 2026-05-07 12:01 | 50.17584 | 9.09400 | 34022 ft | 450 kts | 188° |
| 2026-05-07 12:01 | 50.12382 | 9.08342 | 34023 ft | 450 kts | 188° |
| 2026-05-07 12:02 | 50.06132 | 9.07073 | 34025 ft | 450 kts | 188° |
| 2026-05-07 12:02 | 49.99844 | 9.05800 | 34030 ft | 451 kts | 188° |
| 2026-05-07 12:03 | 49.93636 | 9.04546 | 34035 ft | 450 kts | 188° |
| 2026-05-07 12:03 | 49.87399 | 9.03289 | 34035 ft | 450 kts | 188° |
| 2026-05-07 12:04 | 49.81168 | 9.02039 | 34032 ft | 450 kts | 188° |
| 2026-05-07 12:04 | 49.74922 | 9.00786 | 34028 ft | 450 kts | 188° |
| 2026-05-07 12:05 | 49.68732 | 8.99549 | 34037 ft | 450 kts | 188° |
| 2026-05-07 12:05 | 49.62485 | 8.98210 | 34029 ft | 449 kts | 191° |
| 2026-05-07 12:06 | 49.56293 | 8.96434 | 34028 ft | 448 kts | 192° |
| 2026-05-07 12:06 | 49.50118 | 8.94676 | 34032 ft | 448 kts | 192° |
| 2026-05-07 12:07 | 49.43934 | 8.92972 | 34037 ft | 448 kts | 192° |
| 2026-05-07 12:07 | 49.37829 | 8.91304 | 34027 ft | 448 kts | 192° |
| 2026-05-07 12:08 | 49.31694 | 8.89633 | 34027 ft | 448 kts | 192° |
| 2026-05-07 12:08 | 49.25554 | 8.87965 | 34031 ft | 448 kts | 192° |
| 2026-05-07 12:09 | 49.19249 | 8.86255 | 34019 ft | 448 kts | 192° |
| 2026-05-07 12:09 | 49.13200 | 8.84605 | 33887 ft | 448 kts | 192° |
| 2026-05-07 12:09 | 49.10132 | 8.83767 | 33344 ft | 448 kts | 192° |
| 2026-05-07 12:10 | 49.07072 | 8.82932 | 32506 ft | 450 kts | 192° |
| 2026-05-07 12:10 | 49.03929 | 8.82076 | 31469 ft | 455 kts | 192° |
| 2026-05-07 12:10 | 49.00779 | 8.81219 | 30502 ft | 459 kts | 192° |
| 2026-05-07 12:10 | 48.97641 | 8.80370 | 29936 ft | 452 kts | 191° |
| 2026-05-07 12:11 | 48.94580 | 8.79543 | 29375 ft | 444 kts | 192° |
| 2026-05-07 12:11 | 48.91500 | 8.78712 | 28787 ft | 437 kts | 192° |
| 2026-05-07 12:11 | 48.88564 | 8.77920 | 28226 ft | 431 kts | 192° |
| 2026-05-07 12:11 | 48.85638 | 8.77131 | 27689 ft | 425 kts | 192° |
| 2026-05-07 12:12 | 48.82735 | 8.76352 | 27116 ft | 419 kts | 192° |
| 2026-05-07 12:12 | 48.79864 | 8.75583 | 26557 ft | 414 kts | 192° |
| 2026-05-07 12:12 | 48.77051 | 8.74829 | 26027 ft | 410 kts | 192° |
| 2026-05-07 12:12 | 48.74221 | 8.74072 | 25480 ft | 406 kts | 192° |
| 2026-05-07 12:13 | 48.71443 | 8.73328 | 24911 ft | 403 kts | 192° |
| 2026-05-07 12:13 | 48.68697 | 8.72594 | 24403 ft | 399 kts | 192° |
| 2026-05-07 12:13 | 48.65962 | 8.71862 | 23831 ft | 396 kts | 192° |
| 2026-05-07 12:13 | 48.63263 | 8.71143 | 23305 ft | 392 kts | 192° |
| 2026-05-07 12:14 | 48.60618 | 8.70439 | 22772 ft | 387 kts | 192° |
| 2026-05-07 12:14 | 48.57945 | 8.69729 | 22244 ft | 382 kts | 192° |
| 2026-05-07 12:14 | 48.55383 | 8.69048 | 21739 ft | 378 kts | 192° |
| 2026-05-07 12:14 | 48.52798 | 8.68362 | 21225 ft | 374 kts | 192° |
| 2026-05-07 12:15 | 48.50248 | 8.67686 | 20709 ft | 370 kts | 192° |
| 2026-05-07 12:15 | 48.47750 | 8.67024 | 20220 ft | 367 kts | 192° |
| 2026-05-07 12:15 | 48.45241 | 8.66360 | 19702 ft | 364 kts | 192° |
| 2026-05-07 12:15 | 48.42759 | 8.65704 | 19199 ft | 362 kts | 192° |
| 2026-05-07 12:16 | 48.40263 | 8.65046 | 18682 ft | 360 kts | 192° |
| 2026-05-07 12:16 | 48.37808 | 8.64399 | 18181 ft | 358 kts | 192° |
| 2026-05-07 12:16 | 48.35353 | 8.63704 | 17661 ft | 354 kts | 193° |
| 2026-05-07 12:16 | 48.32948 | 8.62965 | 17154 ft | 351 kts | 194° |
| 2026-05-07 12:17 | 48.30547 | 8.62217 | 16662 ft | 347 kts | 194° |
| 2026-05-07 12:17 | 48.28187 | 8.61489 | 16157 ft | 344 kts | 194° |
| 2026-05-07 12:17 | 48.25874 | 8.60784 | 15688 ft | 342 kts | 193° |
| 2026-05-07 12:17 | 48.23552 | 8.60080 | 15212 ft | 339 kts | 193° |
| 2026-05-07 12:18 | 48.21244 | 8.59382 | 14735 ft | 336 kts | 193° |
| 2026-05-07 12:18 | 48.18950 | 8.58692 | 14257 ft | 334 kts | 193° |
| 2026-05-07 12:18 | 48.16666 | 8.58007 | 13747 ft | 332 kts | 193° |
| 2026-05-07 12:18 | 48.15162 | 8.57557 | 13405 ft | 331 kts | 193° |
| 2026-05-07 12:19 | 48.12917 | 8.56889 | 12986 ft | 326 kts | 193° |
| 2026-05-07 12:19 | 48.10661 | 8.56218 | 12504 ft | 322 kts | 193° |
| 2026-05-07 12:19 | 48.08512 | 8.55578 | 12059 ft | 319 kts | 193° |
| 2026-05-07 12:19 | 48.06346 | 8.54933 | 11609 ft | 316 kts | 193° |
| 2026-05-07 12:20 | 48.04186 | 8.54291 | 11160 ft | 313 kts | 193° |
| 2026-05-07 12:20 | 48.02049 | 8.53657 | 10716 ft | 311 kts | 193° |
| 2026-05-07 12:20 | 47.99935 | 8.53029 | 10372 ft | 305 kts | 193° |
| 2026-05-07 12:20 | 47.97891 | 8.52424 | 10250 ft | 292 kts | 193° |
| 2026-05-07 12:21 | 47.95923 | 8.51841 | 9979 ft | 286 kts | 193° |
| 2026-05-07 12:21 | 47.94017 | 8.51277 | 9783 ft | 277 kts | 193° |
| 2026-05-07 12:21 | 47.92096 | 8.50688 | 9652 ft | 281 kts | 194° |
| 2026-05-07 12:21 | 47.90222 | 8.50090 | 9412 ft | 283 kts | 194° |
| 2026-05-07 12:22 | 47.88289 | 8.49472 | 9041 ft | 282 kts | 194° |
| 2026-05-07 12:22 | 47.86395 | 8.48869 | 8685 ft | 280 kts | 194° |
| 2026-05-07 12:22 | 47.84502 | 8.48271 | 8324 ft | 276 kts | 194° |
| 2026-05-07 12:22 | 47.82630 | 8.47681 | 7981 ft | 273 kts | 194° |
| 2026-05-07 12:23 | 47.80786 | 8.47101 | 7623 ft | 269 kts | 194° |
| 2026-05-07 12:23 | 47.78961 | 8.46527 | 7279 ft | 267 kts | 194° |
| 2026-05-07 12:23 | 47.77148 | 8.45958 | 6930 ft | 265 kts | 194° |
| 2026-05-07 12:23 | 47.75343 | 8.45392 | 6497 ft | 266 kts | 194° |
| 2026-05-07 12:24 | 47.73553 | 8.44830 | 6228 ft | 260 kts | 194° |
| 2026-05-07 12:24 | 47.71824 | 8.44290 | 6092 ft | 244 kts | 194° |
| 2026-05-07 12:24 | 47.70246 | 8.43799 | 5652 ft | 230 kts | 194° |
| 2026-05-07 12:24 | 47.68696 | 8.43315 | 5175 ft | 230 kts | 194° |
| 2026-05-07 12:25 | 47.67101 | 8.42816 | 5020 ft | 233 kts | 194° |
| 2026-05-07 12:25 | 47.65512 | 8.42319 | 4995 ft | 234 kts | 194° |
| 2026-05-07 12:25 | 47.63919 | 8.41839 | 4978 ft | 234 kts | 191° |
| 2026-05-07 12:25 | 47.62302 | 8.41594 | 4688 ft | 231 kts | 186° |
| 2026-05-07 12:26 | 47.60713 | 8.41468 | 4202 ft | 225 kts | 185° |
| 2026-05-07 12:26 | 47.59228 | 8.41443 | 4018 ft | 202 kts | 179° |
| 2026-05-07 12:26 | 47.57936 | 8.41773 | 3973 ft | 174 kts | 166° |
| 2026-05-07 12:26 | 47.56927 | 8.42396 | 3988 ft | 147 kts | 155° |
| 2026-05-07 12:27 | 47.56052 | 8.43180 | 4006 ft | 144 kts | 149° |
| 2026-05-07 12:27 | 47.55240 | 8.44053 | 3864 ft | 148 kts | 143° |
| 2026-05-07 12:27 | 47.54462 | 8.45054 | 3522 ft | 147 kts | 140° |
| 2026-05-07 12:27 | 47.53739 | 8.46036 | 3198 ft | 142 kts | 140° |
| 2026-05-07 12:28 | 47.53008 | 8.47036 | 2904 ft | 148 kts | 139° |
| 2026-05-07 12:28 | 47.52242 | 8.48107 | 2592 ft | 147 kts | 139° |
| 2026-05-07 12:28 | 47.51524 | 8.49100 | 2335 ft | 138 kts | 139° |
| 2026-05-07 12:28 | 47.50825 | 8.50046 | 2065 ft | 140 kts | 140° |
| 2026-05-07 12:29 | 47.50087 | 8.51029 | 1954 ft | 146 kts | 139° |
| 2026-05-07 12:29 | 47.49354 | 8.52060 | 1767 ft | 143 kts | 136° |
| 2026-05-07 12:29 | 47.48640 | 8.53037 | 1558 ft | 141 kts | 138° |
| 2026-05-07 12:29 | 47.47904 | 8.54031 | 1410 ft | 137 kts | 139° |
| 2026-05-07 12:30 | 47.47291 | 8.54858 | 1387 ft | 88 kts | 137° |
| 2026-05-07 12:30 | 47.46958 | 8.55314 | 1389 ft | 46 kts | 137° |
| 2026-05-07 12:30 | 47.46825 | 8.55492 | 1392 ft | 22 kts | 137° |
| 2026-05-07 12:30 | 47.46703 | 8.55622 | 1398 ft | 22 kts | 155° |
| 2026-05-07 12:31 | 47.46550 | 8.55693 | 1397 ft | 24 kts | 167° |
| 2026-05-07 12:31 | 47.46392 | 8.55760 | 1397 ft | 23 kts | 142° |
| 2026-05-07 12:31 | 47.46272 | 8.55907 | 1406 ft | 22 kts | 137° |
| 2026-05-07 12:31 | 47.46151 | 8.55999 | 1406 ft | 17 kts | 177° |
| 2026-05-07 12:32 | 47.46110 | 8.55986 | 1411 ft | 0 kts | 189° |
| 2026-05-07 12:32 | 47.46109 | 8.55987 | 1411 ft | 1 kts | 180° |
| 2026-05-07 12:32 | 47.46082 | 8.55986 | 1409 ft | 7 kts | 182° |
| 2026-05-07 12:32 | 47.46023 | 8.55980 | 1406 ft | 0 kts | 186° |
| 2026-05-07 12:33 | 47.46022 | 8.55980 | 1406 ft | 0 kts | 186° |
| 2026-05-07 12:33 | 47.46022 | 8.55979 | 1406 ft | 0 kts | 186° |
| 2026-05-07 12:35 | 47.45970 | 8.55970 | 1406 ft | 13 kts | 197° |
| 2026-05-07 12:35 | 47.45938 | 8.55920 | 1408 ft | 9 kts | 259° |
| 2026-05-07 12:35 | 47.45944 | 8.55801 | 1404 ft | 15 kts | 276° |
| 2026-05-07 12:36 | 47.45955 | 8.55673 | 1402 ft | 13 kts | 292° |
| 2026-05-07 12:36 | 47.46010 | 8.55639 | 1400 ft | 7 kts | 5° |
| 2026-05-07 12:36 | 47.46050 | 8.55645 | 1405 ft | 0 kts | 6° |